createdAt,value
2023-05-25T00:01:37.516Z,11.53
2023-05-25T00:04:04.571Z,11.51
2023-05-25T00:06:32.550Z,11.51
2023-05-25T00:08:59.120Z,11.46
2023-05-25T00:11:26.801Z,11.41
2023-05-25T00:13:53.686Z,11.35
2023-05-25T00:16:20.596Z,11.32
2023-05-25T00:18:48.724Z,11.26
2023-05-25T00:21:16.180Z,11.29
2023-05-25T00:23:43.149Z,11.29
2023-05-25T00:26:13.524Z,11.30
2023-05-25T00:28:40.020Z,11.31
2023-05-25T00:31:06.607Z,11.32
2023-05-25T00:33:33.164Z,11.31
2023-05-25T00:36:00.289Z,11.29
2023-05-25T00:38:26.768Z,11.29
2023-05-25T00:40:56.511Z,11.30
2023-05-25T00:43:23.359Z,11.30
2023-05-25T00:45:51.717Z,11.23
2023-05-25T00:48:18.931Z,11.31
2023-05-25T00:50:45.978Z,11.31
2023-05-25T00:53:13.718Z,11.29
2023-05-25T00:55:52.067Z,11.26
2023-05-25T00:58:22.060Z,11.25
2023-05-25T01:00:50.745Z,11.17
2023-05-25T01:03:21.821Z,11.26
2023-05-25T01:05:52.048Z,11.27
2023-05-25T01:08:21.245Z,11.29
2023-05-25T01:10:51.353Z,11.26
2023-05-25T01:13:19.985Z,11.23
2023-05-25T01:15:47.958Z,11.23
2023-05-25T01:18:15.875Z,11.24
2023-05-25T01:21:13.296Z,11.29
2023-05-25T01:24:12.075Z,11.29
2023-05-25T01:26:48.840Z,11.30
2023-05-25T01:29:18.709Z,11.29
2023-05-25T01:31:47.249Z,11.29
2023-05-25T01:34:15.162Z,11.28
2023-05-25T01:36:41.699Z,11.29
2023-05-25T01:39:10.983Z,11.30
2023-05-25T01:41:38.343Z,11.31
2023-05-25T01:44:07.537Z,11.28
2023-05-25T01:46:38.596Z,11.27
2023-05-25T01:49:28.393Z,11.21
2023-05-25T01:52:12.829Z,11.18
2023-05-25T01:54:47.077Z,11.21
2023-05-25T01:57:16.925Z,11.23
2023-05-25T01:59:47.147Z,11.28
2023-05-25T02:02:24.034Z,11.29
2023-05-25T02:04:52.956Z,11.30
2023-05-25T02:07:19.458Z,11.30
2023-05-25T02:09:45.936Z,11.30
2023-05-25T02:12:12.481Z,11.29
2023-05-25T02:14:38.965Z,11.25
2023-05-25T02:17:05.586Z,11.23
2023-05-25T02:19:32.091Z,11.21
2023-05-25T02:21:58.709Z,11.22
2023-05-25T02:24:25.591Z,11.25
2023-05-25T02:26:53.040Z,11.23
2023-05-25T02:29:20.528Z,11.21
2023-05-25T02:31:47.357Z,11.19
2023-05-25T02:34:14.061Z,11.21
2023-05-25T02:36:43.343Z,11.19
2023-05-25T02:39:11.026Z,10.99
2023-05-25T02:41:38.774Z,11.18
2023-05-25T02:44:07.173Z,11.16
2023-05-25T02:46:34.191Z,11.19
2023-05-25T02:49:01.196Z,11.20
2023-05-25T02:51:30.203Z,11.22
2023-05-25T02:53:58.754Z,11.21
2023-05-25T02:56:27.531Z,11.18
2023-05-25T02:58:55.292Z,11.18
2023-05-25T03:01:31.824Z,11.16
2023-05-25T03:03:58.585Z,11.15
2023-05-25T03:06:26.565Z,11.12
2023-05-25T03:09:01.280Z,11.09
2023-05-25T03:11:28.470Z,11.09
2023-05-25T03:13:58.423Z,11.09
2023-05-25T03:16:25.991Z,11.07
2023-05-25T03:18:53.761Z,11.14
2023-05-25T03:21:22.342Z,11.17
2023-05-25T03:23:49.452Z,11.18
2023-05-25T03:26:17.555Z,11.15
2023-05-25T03:28:45.877Z,11.16
2023-05-25T03:31:12.669Z,11.11
2023-05-25T03:33:39.420Z,11.09
2023-05-25T03:36:09.478Z,11.09
2023-05-25T03:38:39.098Z,11.05
2023-05-25T03:41:05.855Z,10.99
2023-05-25T03:43:32.403Z,10.95
2023-05-25T03:45:58.976Z,10.92
2023-05-25T03:48:25.579Z,10.89
2023-05-25T03:50:52.273Z,10.88
2023-05-25T03:53:18.799Z,10.94
2023-05-25T03:55:45.510Z,10.92
2023-05-25T03:58:13.111Z,10.91
2023-05-25T04:00:39.560Z,10.88
2023-05-25T04:03:06.971Z,10.90
2023-05-25T04:05:33.669Z,10.89
2023-05-25T04:08:00.292Z,10.88
2023-05-25T04:10:27.064Z,10.73
2023-05-25T04:12:56.616Z,10.87
2023-05-25T04:15:23.417Z,10.90
2023-05-25T04:17:59.644Z,10.88
2023-05-25T04:20:26.373Z,10.86
2023-05-25T04:22:52.985Z,10.94
2023-05-25T04:25:22.109Z,10.98
2023-05-25T04:27:49.054Z,11.01
2023-05-25T04:30:28.195Z,11.05
2023-05-25T04:33:18.510Z,11.06
2023-05-25T04:36:00.672Z,10.99
2023-05-25T04:38:28.086Z,11.09
2023-05-25T04:40:54.574Z,11.10
2023-05-25T04:43:21.271Z,11.16
2023-05-25T04:45:48.075Z,11.18
2023-05-25T04:48:14.912Z,11.22
2023-05-25T04:50:41.839Z,11.25
2023-05-25T04:53:09.113Z,11.31
2023-05-25T04:55:35.840Z,11.36
2023-05-25T04:58:03.306Z,11.41
2023-05-25T05:00:29.876Z,11.46
2023-05-25T05:02:56.712Z,11.50
2023-05-25T05:05:23.409Z,11.57
2023-05-25T05:07:51.751Z,11.58
2023-05-25T05:10:20.584Z,11.63
2023-05-25T05:12:52.825Z,11.68
2023-05-25T05:15:19.278Z,11.74
2023-05-25T05:17:48.229Z,11.79
2023-05-25T05:20:14.990Z,11.86
2023-05-25T05:22:42.166Z,11.87
2023-05-25T05:25:09.151Z,11.96
2023-05-25T05:27:35.967Z,12.01
2023-05-25T05:30:09.104Z,12.06
2023-05-25T05:32:35.619Z,12.14
2023-05-25T05:35:02.373Z,12.20
2023-05-25T05:37:37.610Z,12.29
2023-05-25T05:40:04.676Z,12.34
2023-05-25T05:42:31.744Z,12.36
2023-05-25T05:44:58.546Z,12.41
2023-05-25T05:47:25.050Z,12.49
2023-05-25T05:49:51.608Z,12.56
2023-05-25T05:52:18.157Z,12.60
2023-05-25T05:54:44.706Z,12.63
2023-05-25T05:57:14.244Z,12.68
2023-05-25T05:59:41.058Z,12.74
2023-05-25T06:02:07.766Z,12.79
2023-05-25T06:04:34.316Z,12.82
2023-05-25T06:07:00.988Z,12.87
2023-05-25T06:09:27.787Z,12.93
2023-05-25T06:11:58.246Z,13.03
2023-05-25T06:14:26.769Z,13.10
2023-05-25T06:16:54.830Z,13.17
2023-05-25T06:19:21.415Z,13.15
2023-05-25T06:21:48.074Z,13.29
2023-05-25T06:24:15.247Z,13.36
2023-05-25T06:26:41.912Z,13.42
2023-05-25T06:29:08.452Z,13.51
2023-05-25T06:31:35.010Z,13.59
2023-05-25T06:34:01.965Z,13.71
2023-05-25T06:36:28.480Z,13.79
2023-05-25T06:38:55.246Z,13.93
2023-05-25T06:41:22.266Z,14.03
2023-05-25T06:43:48.906Z,14.16
2023-05-25T06:46:23.920Z,14.23
2023-05-25T06:48:51.339Z,14.23
2023-05-25T06:51:17.856Z,14.31
2023-05-25T06:53:44.560Z,14.38
2023-05-25T06:56:11.153Z,14.43
2023-05-25T06:58:37.692Z,14.47
2023-05-25T07:01:04.297Z,14.57
2023-05-25T07:03:30.970Z,14.60
2023-05-25T07:05:58.353Z,14.65
2023-05-25T07:08:24.825Z,14.58
2023-05-25T07:10:51.371Z,14.72
2023-05-25T07:13:17.887Z,14.87
2023-05-25T07:15:44.910Z,14.81
2023-05-25T07:18:12.623Z,15.00
2023-05-25T07:20:43.855Z,15.03
2023-05-25T07:23:13.957Z,15.14
2023-05-25T07:25:41.420Z,15.20
2023-05-25T07:28:08.673Z,15.21
2023-05-25T07:30:35.630Z,15.23
2023-05-25T07:33:02.142Z,15.25
2023-05-25T07:35:28.722Z,15.24
2023-05-25T07:38:02.564Z,15.30
2023-05-25T07:40:29.060Z,15.47
2023-05-25T07:42:55.553Z,15.54
2023-05-25T07:45:22.527Z,15.59
2023-05-25T07:47:49.272Z,15.59
2023-05-25T07:50:16.042Z,15.63
2023-05-25T07:52:42.702Z,15.65
2023-05-25T07:55:09.970Z,15.64
2023-05-25T07:57:36.645Z,15.65
2023-05-25T08:00:13.269Z,15.68
2023-05-25T08:02:39.912Z,15.76
2023-05-25T08:05:06.890Z,15.84
2023-05-25T08:07:33.741Z,15.98
2023-05-25T08:10:00.781Z,16.04
2023-05-25T08:12:42.950Z,16.10
2023-05-25T08:15:13.985Z,16.12
2023-05-25T08:17:41.688Z,16.18
2023-05-25T08:20:09.057Z,16.14
2023-05-25T08:22:36.088Z,16.16
2023-05-25T08:25:04.728Z,16.22
2023-05-25T08:27:32.918Z,16.25
2023-05-25T08:30:02.017Z,16.33
2023-05-25T08:32:28.534Z,16.33
2023-05-25T08:34:55.062Z,16.36
2023-05-25T08:37:22.621Z,16.44
2023-05-25T08:39:49.099Z,16.49
2023-05-25T08:42:15.681Z,16.52
2023-05-25T08:44:42.383Z,16.64
2023-05-25T08:47:09.214Z,16.79
2023-05-25T08:49:38.692Z,17.01
2023-05-25T08:52:09.418Z,17.19
2023-05-25T08:54:37.625Z,17.34
2023-05-25T08:57:17.174Z,17.33
2023-05-25T09:00:10.501Z,17.31
2023-05-25T09:02:51.419Z,17.33
2023-05-25T09:05:18.931Z,17.35
2023-05-25T09:07:46.643Z,17.44
2023-05-25T09:10:14.373Z,17.59
2023-05-25T09:12:42.378Z,17.66
2023-05-25T09:15:12.384Z,17.71
2023-05-25T09:17:39.997Z,17.84
2023-05-25T09:20:09.259Z,17.87
2023-05-25T09:22:36.109Z,17.94
2023-05-25T09:25:08.707Z,17.97
2023-05-25T09:27:39.647Z,17.99
2023-05-25T09:30:06.931Z,18.01
2023-05-25T09:32:33.702Z,18.12
2023-05-25T09:35:10.961Z,18.16
2023-05-25T09:37:38.520Z,18.18
2023-05-25T09:40:06.258Z,18.20
2023-05-25T09:42:36.935Z,18.32
2023-05-25T09:45:04.969Z,18.37
2023-05-25T09:47:31.573Z,18.33
2023-05-25T09:49:58.576Z,18.25
2023-05-25T09:52:25.931Z,18.47
2023-05-25T09:54:52.730Z,18.74
2023-05-25T09:57:20.504Z,18.90
2023-05-25T09:59:47.746Z,19.03
2023-05-25T10:02:15.345Z,19.16
2023-05-25T10:04:41.887Z,19.36
2023-05-25T10:07:08.660Z,19.50
2023-05-25T10:09:41.586Z,19.53
2023-05-25T10:12:08.837Z,19.54
2023-05-25T10:14:38.138Z,19.69
2023-05-25T10:17:07.026Z,19.87
2023-05-25T10:19:33.430Z,20.04
2023-05-25T10:22:08.840Z,20.35
2023-05-25T10:24:59.475Z,20.32
2023-05-25T10:27:41.151Z,20.36
2023-05-25T10:30:09.705Z,20.51
2023-05-25T10:32:37.546Z,20.65
2023-05-25T10:35:06.188Z,20.55
2023-05-25T10:37:34.027Z,20.71
2023-05-25T10:40:01.478Z,20.64
2023-05-25T10:42:29.529Z,20.68
2023-05-25T10:44:57.701Z,20.86
2023-05-25T10:47:24.559Z,21.13
2023-05-25T10:49:57.643Z,21.22
2023-05-25T10:52:29.601Z,21.24
2023-05-25T10:55:07.278Z,21.23
2023-05-25T10:57:33.887Z,21.17
2023-05-25T11:00:07.132Z,21.18
2023-05-25T11:02:54.995Z,21.30
2023-05-25T11:05:30.449Z,21.28
2023-05-25T11:08:02.062Z,21.21
2023-05-25T11:10:51.129Z,21.17
2023-05-25T11:13:37.025Z,21.09
2023-05-25T11:16:18.210Z,21.12
2023-05-25T11:18:57.919Z,21.01
2023-05-25T11:21:27.533Z,21.01
2023-05-25T11:23:59.403Z,21.07
2023-05-25T11:26:30.799Z,21.36
2023-05-25T11:29:00.844Z,21.50
2023-05-25T11:31:31.954Z,21.46
2023-05-25T11:34:01.279Z,21.33
2023-05-25T11:36:31.543Z,21.11
2023-05-25T11:39:06.639Z,21.05
2023-05-25T11:41:40.232Z,20.99
2023-05-25T11:44:07.829Z,21.02
2023-05-25T11:46:35.144Z,20.96
2023-05-25T11:49:01.754Z,21.09
2023-05-25T11:51:30.204Z,21.50
2023-05-25T11:53:57.147Z,22.01
2023-05-25T11:56:34.173Z,22.43
2023-05-25T11:59:01.895Z,22.44
2023-05-25T12:01:31.807Z,22.32
2023-05-25T12:03:58.649Z,22.14
2023-05-25T12:06:30.258Z,21.98
2023-05-25T12:08:57.731Z,21.92
2023-05-25T12:11:32.215Z,22.00
2023-05-25T12:13:59.983Z,22.05
2023-05-25T12:16:27.173Z,22.06
2023-05-25T12:18:54.840Z,22.18
2023-05-25T12:21:22.502Z,22.27
2023-05-25T12:23:50.288Z,22.21
2023-05-25T12:26:18.998Z,22.07
2023-05-25T12:29:05.956Z,22.29
2023-05-25T12:31:34.310Z,22.52
2023-05-25T12:34:12.158Z,22.47
2023-05-25T12:37:04.933Z,22.41
2023-05-25T12:39:31.365Z,22.32
2023-05-25T12:41:59.630Z,22.16
2023-05-25T12:44:31.241Z,22.08
2023-05-25T12:47:10.803Z,22.39
2023-05-25T12:49:37.700Z,22.86
2023-05-25T12:52:05.021Z,23.12
2023-05-25T12:54:46.181Z,22.95
2023-05-25T12:57:14.598Z,22.70
2023-05-25T12:59:43.359Z,22.53
2023-05-25T13:02:10.775Z,22.39
2023-05-25T13:04:39.065Z,22.25
2023-05-25T13:07:08.413Z,22.24
2023-05-25T13:09:35.222Z,22.77
2023-05-25T13:12:02.742Z,23.26
2023-05-25T13:14:29.983Z,23.44
2023-05-25T13:16:57.594Z,23.31
2023-05-25T13:19:25.883Z,23.09
2023-05-25T13:21:52.971Z,23.41
2023-05-25T13:24:19.725Z,23.99
2023-05-25T13:26:48.411Z,24.56
2023-05-25T13:29:17.333Z,25.08
2023-05-25T13:31:44.185Z,25.26
2023-05-25T13:34:11.097Z,25.48
2023-05-25T13:36:37.634Z,25.30
2023-05-25T13:39:05.349Z,25.20
2023-05-25T13:41:31.909Z,24.87
2023-05-25T13:43:58.401Z,24.61
2023-05-25T13:46:34.046Z,24.32
2023-05-25T13:49:02.002Z,23.94
2023-05-25T13:51:28.484Z,24.08
2023-05-25T13:53:54.973Z,24.61
2023-05-25T13:56:22.330Z,25.15
2023-05-25T13:58:48.918Z,25.53
2023-05-25T14:01:15.649Z,25.86
2023-05-25T14:03:42.386Z,26.11
2023-05-25T14:06:09.441Z,26.38
2023-05-25T14:08:36.035Z,26.57
2023-05-25T14:11:02.989Z,26.41
2023-05-25T14:13:29.668Z,25.92
2023-05-25T14:15:56.272Z,25.29
2023-05-25T14:18:22.944Z,24.80
2023-05-25T14:20:49.582Z,24.85
2023-05-25T14:23:18.498Z,24.83
2023-05-25T14:25:46.942Z,24.73
2023-05-25T14:28:13.688Z,25.26
2023-05-25T14:30:40.162Z,25.66
2023-05-25T14:33:06.756Z,25.66
2023-05-25T14:35:33.256Z,25.48
2023-05-25T14:37:59.889Z,25.24
2023-05-25T14:40:26.488Z,24.90
2023-05-25T14:42:55.364Z,24.53
2023-05-25T14:45:21.973Z,24.13
2023-05-25T14:47:48.597Z,23.78
2023-05-25T14:50:15.674Z,23.58
2023-05-25T14:52:42.713Z,23.71
2023-05-25T14:55:09.618Z,23.90
2023-05-25T14:57:36.766Z,24.35
2023-05-25T15:00:04.113Z,25.03
2023-05-25T15:02:30.778Z,25.39
2023-05-25T15:04:57.447Z,25.66
2023-05-25T15:07:24.084Z,25.53
2023-05-25T15:09:50.671Z,25.10
2023-05-25T15:12:17.166Z,25.29
2023-05-25T15:14:43.642Z,25.63
2023-05-25T15:17:10.121Z,25.91
2023-05-25T15:19:37.282Z,26.16
2023-05-25T15:22:03.968Z,26.47
2023-05-25T15:24:30.464Z,26.73
2023-05-25T15:26:56.916Z,26.64
2023-05-25T15:29:23.572Z,26.23
2023-05-25T15:31:53.581Z,25.94
2023-05-25T15:34:20.582Z,25.69
2023-05-25T15:36:47.098Z,25.50
2023-05-25T15:39:15.322Z,25.32
2023-05-25T15:41:42.101Z,25.47
2023-05-25T15:44:12.352Z,25.44
2023-05-25T15:46:40.168Z,25.42
2023-05-25T15:49:11.135Z,25.69
2023-05-25T15:51:41.914Z,26.09
2023-05-25T15:54:11.178Z,26.26
2023-05-25T15:56:40.113Z,26.48
2023-05-25T15:59:06.705Z,26.61
2023-05-25T16:01:34.435Z,26.68
2023-05-25T16:04:01.324Z,26.69
2023-05-25T16:06:28.068Z,26.57
2023-05-25T16:08:54.700Z,26.40
2023-05-25T16:11:21.756Z,26.20
2023-05-25T16:13:48.183Z,26.33
2023-05-25T16:16:14.866Z,26.45
2023-05-25T16:18:41.601Z,26.18
2023-05-25T16:21:08.103Z,26.06
2023-05-25T16:23:34.557Z,25.61
2023-05-25T16:26:01.030Z,25.44
2023-05-25T16:28:28.687Z,25.61
2023-05-25T16:30:55.225Z,25.75
2023-05-25T16:33:21.652Z,25.89
2023-05-25T16:35:48.390Z,25.99
2023-05-25T16:38:14.888Z,26.02
2023-05-25T16:40:41.376Z,25.91
2023-05-25T16:43:07.836Z,25.73
2023-05-25T16:45:34.371Z,25.42
2023-05-25T16:48:00.866Z,25.31
2023-05-25T16:50:27.426Z,25.33
2023-05-25T16:52:53.956Z,25.19
2023-05-25T16:55:21.292Z,25.08
2023-05-25T16:57:47.893Z,25.20
2023-05-25T17:00:14.943Z,25.28
2023-05-25T17:02:41.540Z,25.34
2023-05-25T17:05:08.564Z,25.33
2023-05-25T17:07:35.870Z,25.39
2023-05-25T17:10:02.420Z,25.48
2023-05-25T17:12:28.937Z,25.45
2023-05-25T17:14:55.383Z,25.39
2023-05-25T17:17:21.886Z,25.23
2023-05-25T17:19:48.464Z,25.19
2023-05-25T17:22:14.932Z,25.18
2023-05-25T17:24:41.443Z,25.24
2023-05-25T17:27:07.946Z,25.03
2023-05-25T17:29:34.432Z,24.96
2023-05-25T17:32:00.909Z,24.89
2023-05-25T17:34:27.477Z,24.77
2023-05-25T17:36:53.965Z,24.64
2023-05-25T17:39:20.529Z,24.54
2023-05-25T17:41:47.625Z,24.71
2023-05-25T17:44:14.108Z,25.07
2023-05-25T17:46:40.624Z,26.14
2023-05-25T17:49:07.147Z,27.24
2023-05-25T17:51:33.652Z,27.93
2023-05-25T17:54:00.143Z,28.27
2023-05-25T17:56:27.122Z,28.05
2023-05-25T17:58:53.684Z,27.17
2023-05-25T18:01:20.338Z,26.13
2023-05-25T18:03:47.022Z,25.26
2023-05-25T18:06:13.526Z,24.62
2023-05-25T18:08:39.996Z,24.12
2023-05-25T18:11:06.513Z,23.73
2023-05-25T18:13:32.955Z,23.38
2023-05-25T18:15:59.701Z,23.06
2023-05-25T18:18:26.215Z,22.76
2023-05-25T18:20:52.722Z,22.54
2023-05-25T18:23:19.196Z,22.25
2023-05-25T18:25:46.137Z,22.06
2023-05-25T18:28:14.983Z,21.84
2023-05-25T18:30:45.356Z,21.62
2023-05-25T18:33:11.937Z,21.42
2023-05-25T18:35:38.578Z,21.24
2023-05-25T18:38:06.564Z,21.12
2023-05-25T18:40:33.040Z,20.92
2023-05-25T18:42:59.536Z,20.81
2023-05-25T18:45:26.106Z,20.65
2023-05-25T18:47:52.763Z,20.52
2023-05-25T18:50:20.030Z,20.41
2023-05-25T18:52:50.642Z,20.31
2023-05-25T18:55:18.367Z,20.20
2023-05-25T18:57:44.856Z,20.09
2023-05-25T19:00:12.016Z,20.00
2023-05-25T19:02:38.815Z,19.89
2023-05-25T19:05:05.831Z,19.76
2023-05-25T19:07:32.582Z,19.65
2023-05-25T19:09:59.051Z,19.56
2023-05-25T19:12:25.672Z,19.48
2023-05-25T19:14:52.094Z,19.41
2023-05-25T19:17:18.551Z,19.32
2023-05-25T19:19:45.006Z,19.24
2023-05-25T19:22:11.519Z,19.14
2023-05-25T19:24:42.367Z,19.07
2023-05-25T19:27:09.324Z,18.98
2023-05-25T19:29:35.758Z,18.92
2023-05-25T19:32:02.287Z,18.81
2023-05-25T19:34:28.936Z,18.73
2023-05-25T19:37:10.253Z,18.61
2023-05-25T19:39:37.269Z,18.50
2023-05-25T19:42:03.917Z,18.43
2023-05-25T19:44:31.063Z,18.37
2023-05-25T19:46:57.890Z,18.29
2023-05-25T19:49:24.504Z,18.21
2023-05-25T19:51:51.439Z,18.15
2023-05-25T19:54:17.931Z,18.13
2023-05-25T19:56:44.435Z,18.05
2023-05-25T19:59:11.314Z,17.97
2023-05-25T20:01:37.844Z,17.90
2023-05-25T20:04:04.473Z,17.81
2023-05-25T20:06:31.466Z,17.78
2023-05-25T20:08:58.116Z,17.74
2023-05-25T20:11:24.602Z,17.65
2023-05-25T20:13:51.128Z,17.60
2023-05-25T20:16:17.638Z,17.53
2023-05-25T20:18:45.557Z,17.44
2023-05-25T20:21:12.027Z,17.40
2023-05-25T20:23:38.525Z,17.36
2023-05-25T20:26:05.046Z,17.31
2023-05-25T20:28:31.546Z,17.24
2023-05-25T20:30:58.004Z,17.17
2023-05-25T20:33:24.548Z,17.15
2023-05-25T20:35:51.229Z,17.04
2023-05-25T20:38:17.756Z,17.04
2023-05-25T20:40:44.282Z,16.99
2023-05-25T20:43:10.747Z,16.94
2023-05-25T20:45:38.565Z,16.89
2023-05-25T20:48:05.155Z,16.80
2023-05-25T20:50:31.781Z,16.79
2023-05-25T20:52:58.392Z,16.74
2023-05-25T20:55:25.801Z,16.70
2023-05-25T20:57:52.501Z,16.64
2023-05-25T21:00:19.231Z,16.59
2023-05-25T21:02:45.990Z,16.55
2023-05-25T21:05:12.576Z,16.48
2023-05-25T21:07:39.116Z,16.49
2023-05-25T21:10:06.141Z,16.42
2023-05-25T21:12:32.742Z,16.44
2023-05-25T21:14:59.243Z,16.37
2023-05-25T21:17:25.991Z,16.36
2023-05-25T21:19:52.593Z,16.21
2023-05-25T21:22:19.397Z,16.33
2023-05-25T21:24:46.021Z,16.31
2023-05-25T21:27:12.485Z,16.13
2023-05-25T21:29:38.978Z,16.19
2023-05-25T21:32:05.752Z,16.17
2023-05-25T21:34:32.235Z,16.13
2023-05-25T21:36:58.716Z,16.09
2023-05-25T21:39:25.319Z,16.10
2023-05-25T21:41:51.796Z,16.09
2023-05-25T21:44:18.432Z,16.07
2023-05-25T21:46:45.032Z,16.06
2023-05-25T21:49:11.635Z,16.04
2023-05-25T21:51:38.130Z,16.02
2023-05-25T21:54:04.693Z,16.01
2023-05-25T21:56:31.267Z,16.01
2023-05-25T21:58:57.841Z,15.96
2023-05-25T22:01:24.418Z,15.89
2023-05-25T22:03:51.174Z,15.88
2023-05-25T22:06:17.739Z,15.82
2023-05-25T22:08:44.299Z,15.75
2023-05-25T22:11:10.937Z,15.75
2023-05-25T22:13:37.494Z,15.67
2023-05-25T22:16:03.991Z,15.70
2023-05-25T22:18:30.611Z,15.67
2023-05-25T22:20:57.235Z,15.66
2023-05-25T22:23:23.756Z,15.63
2023-05-25T22:25:50.374Z,15.54
2023-05-25T22:28:17.001Z,15.52
2023-05-25T22:30:43.546Z,15.50
2023-05-25T22:33:10.217Z,15.49
2023-05-25T22:35:37.322Z,15.46
2023-05-25T22:38:03.826Z,15.40
2023-05-25T22:40:32.637Z,15.42
2023-05-25T22:42:59.080Z,15.41
2023-05-25T22:45:25.669Z,15.38
2023-05-25T22:47:52.199Z,15.41
2023-05-25T22:50:18.735Z,15.38
2023-05-25T22:52:45.433Z,15.31
2023-05-25T22:55:12.014Z,15.30
2023-05-25T22:57:39.251Z,15.28
2023-05-25T23:00:06.577Z,15.20
2023-05-25T23:02:33.209Z,15.19
2023-05-25T23:04:59.781Z,15.20
2023-05-25T23:07:26.257Z,15.21
2023-05-25T23:09:52.687Z,15.21
2023-05-25T23:12:19.188Z,15.21
2023-05-25T23:14:45.623Z,15.16
2023-05-25T23:17:12.090Z,15.10
2023-05-25T23:19:40.178Z,15.07
2023-05-25T23:22:06.648Z,15.03
2023-05-25T23:24:33.093Z,15.01
2023-05-25T23:26:59.598Z,15.02
2023-05-25T23:29:26.281Z,15.01
2023-05-25T23:31:52.940Z,15.01
2023-05-25T23:34:19.585Z,15.00
2023-05-25T23:36:46.074Z,15.01
2023-05-25T23:39:13.034Z,15.00
2023-05-25T23:41:39.591Z,14.97
2023-05-25T23:44:06.463Z,14.96
2023-05-25T23:46:33.002Z,14.93
2023-05-25T23:48:59.564Z,14.96
2023-05-25T23:51:26.105Z,14.92
2023-05-25T23:53:52.573Z,14.88
2023-05-25T23:56:19.116Z,14.84
2023-05-25T23:58:45.653Z,14.81
